Christiana — WDD5937 — position and weather

sailwx.info

Track history (hours):
 
Tides and Currents Weather Stations Pressure Air Temp Water Temp Dewpoint Dewpoint Depression Visibility Wind Speed Wind Dir Waves Ship Positions

Christiana

Owner: Christiana, Philadelphia, PA. More information available from US FCC via Universal Licensing System and Coast Guard Vessel Documentation Center.

Last reported at 2018-Jun-03 03:54 UTC. Time now 2018-Jun-25 11:30 UTC.
Position N 27°50' W 096°60'.
Warning: this ship's position is 22 days out of date.

Length 172 m; draft 8.5 m.

Type: Tanker. MMSI: 367165980.

Date/timePositionNaut miles runAvg speedWind from/ knotsBaromVisibWave heightAir tempDewpointWater temp
2018-Jun-03 03:54N 27°50' W 096°60'0 0.0
2018-Jun-03 03:30N 27°50' W 096°60'0 0.0
2018-Jun-03 03:00N 27°50' W 096°60'0 0.0
2018-Jun-03 02:30N 27°50' W 096°60'0 0.0
2018-Jun-03 01:45N 27°50' W 096°60'0 0.0
2018-Jun-03 01:30N 27°50' W 096°60'155 6.4
2018-Jun-02 01:26N 29°12' W 094°30'910.6
2018-Jun-02 00:33N 29°18' W 094°38'8 9.2
2018-Jun-01 23:42N 29°21' W 094°46'211.3
2018-Jun-01 23:30N 29°22' W 094°48'510.9
2018-Jun-01 22:59N 29°27' W 094°51'510.4
2018-Jun-01 22:30N 29°32' W 094°54'510.3
2018-Jun-01 22:00N 29°36' W 094°57'510.5
2018-Jun-01 21:31N 29°41' W 094°59'5 8.4
2018-Jun-01 20:57N 29°44' W 095°03'3 5.8
2018-Jun-01 20:28N 29°45' W 095°06'0 0.6
2018-Jun-01 19:56N 29°45' W 095°06'0 0.0
2018-Jun-01 19:30N 29°45' W 095°06'0 0.0
2018-May-31 17:14N 29°45' W 095°06'0 0.0
2018-May-31 17:00N 29°45' W 095°06'1 2.2
2018-May-31 16:30N 29°46' W 095°05'4 8.1
2018-May-31 16:00N 29°44' W 095°01'5 9.1
2018-May-31 15:30N 29°40' W 094°58'510.1
2018-May-31 15:00N 29°35' W 094°56'510.8
2018-May-31 14:30N 29°31' W 094°53'611.6
2018-May-31 14:00N 29°25' W 094°50'611.5
2018-May-31 13:30N 29°21' W 094°46'1 2.2
2018-May-31 13:00N 29°21' W 094°45'0 0.0
2018-May-31 12:30N 29°21' W 094°45'0 0.0
2018-May-31 12:00N 29°21' W 094°45'0 0.0
2018-May-31 11:30N 29°21' W 094°45'0 0.0
2018-May-31 11:00N 29°21' W 094°45'0 0.0
2018-May-31 10:30N 29°21' W 094°45'0 0.0
2018-May-31 10:00N 29°21' W 094°45'0 0.0
2018-May-31 09:27N 29°21' W 094°45'0 0.1
2018-May-31 07:54N 29°21' W 094°45'0 0.1
2018-May-31 06:42N 29°21' W 094°45'0 0.0
2018-May-31 06:30N 29°21' W 094°45'0 0.0
2018-May-31 06:00N 29°21' W 094°45'0 0.0
2018-May-31 05:30N 29°21' W 094°45'0 0.0
2018-May-31 04:57N 29°21' W 094°45'0 0.0
2018-May-31 04:27N 29°21' W 094°45'0 0.0
2018-May-31 03:54N 29°21' W 094°45'0 0.0
2018-May-31 03:30N 29°21' W 094°45'0 0.0
2018-May-31 02:51N 29°21' W 094°45'0 0.0
2018-May-31 02:27N 29°21' W 094°45'0 0.0
2018-May-31 01:54N 29°21' W 094°45'0 0.0
2018-May-31 01:09N 29°21' W 094°45'0 0.0
2018-May-31 00:57N 29°21' W 094°45'0 0.0
2018-May-31 00:27N 29°21' W 094°45'0 0.0
2018-May-30 23:54N 29°21' W 094°45'0 0.0
2018-May-30 23:21N 29°21' W 094°45'0 0.0
2018-May-30 22:42N 29°21' W 094°45'0 0.1
2018-May-30 22:27N 29°21' W 094°45'0 0.0
2018-May-30 22:00N 29°21' W 094°45'0 0.0
2018-May-30 19:54N 29°21' W 094°45'0 0.1
2018-May-30 19:30N 29°21' W 094°45'0 0.1
2018-May-30 17:18N 29°21' W 094°45'0 0.1
2018-May-30 17:00N 29°21' W 094°45'0 0.0
2018-May-30 16:30N 29°21' W 094°45'0 0.0
2018-May-30 16:00N 29°21' W 094°45'0 0.0
2018-May-30 15:30N 29°21' W 094°45'0 0.0
2018-May-30 15:00N 29°21' W 094°45'0 0.0
2018-May-30 14:30N 29°21' W 094°45'0 0.0
2018-May-30 14:00N 29°21' W 094°45'0 0.0
2018-May-30 13:30N 29°21' W 094°45'0 0.0
2018-May-30 13:00N 29°21' W 094°45'0 0.0
2018-May-30 12:30N 29°21' W 094°45'0 0.0
2018-May-30 11:57N 29°21' W 094°45'0 0.0
2018-May-30 11:27N 29°21' W 094°45'0 0.0
2018-May-30 11:00N 29°21' W 094°45'0 0.0
2018-May-30 10:24N 29°21' W 094°45'0 0.0
2018-May-30 10:00N 29°21' W 094°45'0 0.0
2018-May-30 09:27N 29°21' W 094°45'0 0.1
2018-May-30 09:00N 29°21' W 094°45'0 0.1
2018-May-30 08:27N 29°21' W 094°45'0 0.2
2018-May-30 08:00N 29°21' W 094°45'1 1.3
2018-May-30 07:30N 29°21' W 094°44'5 9.3
2018-May-30 07:00N 29°19' W 094°39'5 8.6
2018-May-30 06:28N 29°17' W 094°35'910.2
2018-May-30 05:33N 29°12' W 094°26'110.5
2018-May-30 05:28N 29°11' W 094°25'510.3
2018-May-30 05:00N 29°08' W 094°21'610.2
2018-May-30 04:25N 29°05' W 094°15'410.1
2018-May-30 03:59N 29°03' W 094°11'810.1
2018-May-30 03:13N 28°58' W 094°04'210.3
2018-May-30 03:00N 28°57' W 094°02'1210.8
2018-May-30 01:51N 28°49' W 093°50'411.0
2018-May-30 01:30N 28°47' W 093°47'511.0
2018-May-30 01:00N 28°44' W 093°42'710.9
2018-May-30 00:23N 28°40' W 093°35'  
Track history (hours):
 
Tides and Currents Weather Stations Pressure Air Temp Water Temp Dewpoint Dewpoint Depression Visibility Wind Speed Wind Dir Waves Ship Positions

Christiana

Owner: Christiana, Philadelphia, PA. More information available from US FCC via Universal Licensing System and Coast Guard Vessel Documentation Center.

Last reported at 2018-Jun-03 03:54 UTC. Time now 2018-Jun-25 11:30 UTC.
Position N 27°50' W 096°60'.
Warning: this ship's position is 22 days out of date.

Length 172 m; draft 8.5 m.

Type: Tanker. MMSI: 367165980.

Date/timePositionNaut miles runAvg speedWind from/ knotsBaromVisibWave heightAir tempDewpointWater temp
2018-Jun-03 03:54N 27°50' W 096°60'0 0.0
2018-Jun-03 03:30N 27°50' W 096°60'0 0.0
2018-Jun-03 03:00N 27°50' W 096°60'0 0.0
2018-Jun-03 02:30N 27°50' W 096°60'0 0.0
2018-Jun-03 01:45N 27°50' W 096°60'0 0.0
2018-Jun-03 01:30N 27°50' W 096°60'155 6.4
2018-Jun-02 01:26N 29°12' W 094°30'910.6
2018-Jun-02 00:33N 29°18' W 094°38'8 9.2
2018-Jun-01 23:42N 29°21' W 094°46'211.3
2018-Jun-01 23:30N 29°22' W 094°48'510.9
2018-Jun-01 22:59N 29°27' W 094°51'510.4
2018-Jun-01 22:30N 29°32' W 094°54'510.3
2018-Jun-01 22:00N 29°36' W 094°57'510.5
2018-Jun-01 21:31N 29°41' W 094°59'5 8.4
2018-Jun-01 20:57N 29°44' W 095°03'3 5.8
2018-Jun-01 20:28N 29°45' W 095°06'0 0.6
2018-Jun-01 19:56N 29°45' W 095°06'0 0.0
2018-Jun-01 19:30N 29°45' W 095°06'0 0.0
2018-May-31 17:14N 29°45' W 095°06'0 0.0
2018-May-31 17:00N 29°45' W 095°06'1 2.2
2018-May-31 16:30N 29°46' W 095°05'4 8.1
2018-May-31 16:00N 29°44' W 095°01'5 9.1
2018-May-31 15:30N 29°40' W 094°58'510.1
2018-May-31 15:00N 29°35' W 094°56'510.8
2018-May-31 14:30N 29°31' W 094°53'611.6
2018-May-31 14:00N 29°25' W 094°50'611.5
2018-May-31 13:30N 29°21' W 094°46'1 2.2
2018-May-31 13:00N 29°21' W 094°45'0 0.0
2018-May-31 12:30N 29°21' W 094°45'0 0.0
2018-May-31 12:00N 29°21' W 094°45'0 0.0
2018-May-31 11:30N 29°21' W 094°45'0 0.0
2018-May-31 11:00N 29°21' W 094°45'0 0.0
2018-May-31 10:30N 29°21' W 094°45'0 0.0
2018-May-31 10:00N 29°21' W 094°45'0 0.0
2018-May-31 09:27N 29°21' W 094°45'0 0.1
2018-May-31 07:54N 29°21' W 094°45'0 0.1
2018-May-31 06:42N 29°21' W 094°45'0 0.0
2018-May-31 06:30N 29°21' W 094°45'0 0.0
2018-May-31 06:00N 29°21' W 094°45'0 0.0
2018-May-31 05:30N 29°21' W 094°45'0 0.0
2018-May-31 04:57N 29°21' W 094°45'0 0.0
2018-May-31 04:27N 29°21' W 094°45'0 0.0
2018-May-31 03:54N 29°21' W 094°45'0 0.0
2018-May-31 03:30N 29°21' W 094°45'0 0.0
2018-May-31 02:51N 29°21' W 094°45'0 0.0
2018-May-31 02:27N 29°21' W 094°45'0 0.0
2018-May-31 01:54N 29°21' W 094°45'0 0.0
2018-May-31 01:09N 29°21' W 094°45'0 0.0
2018-May-31 00:57N 29°21' W 094°45'0 0.0
2018-May-31 00:27N 29°21' W 094°45'0 0.0
2018-May-30 23:54N 29°21' W 094°45'0 0.0
2018-May-30 23:21N 29°21' W 094°45'0 0.0
2018-May-30 22:42N 29°21' W 094°45'0 0.1
2018-May-30 22:27N 29°21' W 094°45'0 0.0
2018-May-30 22:00N 29°21' W 094°45'0 0.0
2018-May-30 19:54N 29°21' W 094°45'0 0.1
2018-May-30 19:30N 29°21' W 094°45'0 0.1
2018-May-30 17:18N 29°21' W 094°45'0 0.1
2018-May-30 17:00N 29°21' W 094°45'0 0.0
2018-May-30 16:30N 29°21' W 094°45'0 0.0
2018-May-30 16:00N 29°21' W 094°45'0 0.0
2018-May-30 15:30N 29°21' W 094°45'0 0.0
2018-May-30 15:00N 29°21' W 094°45'0 0.0
2018-May-30 14:30N 29°21' W 094°45'0 0.0
2018-May-30 14:00N 29°21' W 094°45'0 0.0
2018-May-30 13:30N 29°21' W 094°45'0 0.0
2018-May-30 13:00N 29°21' W 094°45'0 0.0
2018-May-30 12:30N 29°21' W 094°45'0 0.0
2018-May-30 11:57N 29°21' W 094°45'0 0.0
2018-May-30 11:27N 29°21' W 094°45'0 0.0
2018-May-30 11:00N 29°21' W 094°45'0 0.0
2018-May-30 10:24N 29°21' W 094°45'0 0.0
2018-May-30 10:00N 29°21' W 094°45'0 0.0
2018-May-30 09:27N 29°21' W 094°45'0 0.1
2018-May-30 09:00N 29°21' W 094°45'0 0.1
2018-May-30 08:27N 29°21' W 094°45'0 0.2
2018-May-30 08:00N 29°21' W 094°45'1 1.3
2018-May-30 07:30N 29°21' W 094°44'5 9.3
2018-May-30 07:00N 29°19' W 094°39'5 8.6
2018-May-30 06:28N 29°17' W 094°35'910.2
2018-May-30 05:33N 29°12' W 094°26'110.5
2018-May-30 05:28N 29°11' W 094°25'510.3
2018-May-30 05:00N 29°08' W 094°21'610.2
2018-May-30 04:25N 29°05' W 094°15'410.1
2018-May-30 03:59N 29°03' W 094°11'810.1
2018-May-30 03:13N 28°58' W 094°04'210.3
2018-May-30 03:00N 28°57' W 094°02'1210.8
2018-May-30 01:51N 28°49' W 093°50'411.0
2018-May-30 01:30N 28°47' W 093°47'511.0
2018-May-30 01:00N 28°44' W 093°42'710.9
2018-May-30 00:23N 28°40' W 093°35'  

Dump ship's entire track history